createdAt,value
2023-01-19T00:00:06.299Z,4.10
2023-01-19T00:02:32.991Z,4.20
2023-01-19T00:04:59.606Z,4.10
2023-01-19T00:07:26.092Z,3.50
2023-01-19T00:09:52.550Z,3.40
2023-01-19T00:12:19.011Z,3.30
2023-01-19T00:14:45.569Z,3.20
2023-01-19T00:17:12.027Z,3.60
2023-01-19T00:19:38.507Z,3.30
2023-01-19T00:22:04.985Z,3.10
2023-01-19T00:24:32.776Z,3.10
2023-01-19T00:26:59.907Z,3.70
2023-01-19T00:29:26.450Z,3.40
2023-01-19T00:31:52.934Z,3.90
2023-01-19T00:34:19.414Z,3.30
2023-01-19T00:36:45.947Z,3.60
2023-01-19T00:39:12.437Z,3.50
2023-01-19T00:41:38.930Z,3.30
2023-01-19T00:44:05.495Z,3.10
2023-01-19T00:46:31.988Z,3.70
2023-01-19T00:48:58.787Z,3.10
2023-01-19T00:51:25.267Z,3.50
2023-01-19T00:53:51.905Z,3.20
2023-01-19T00:56:18.365Z,3.10
2023-01-19T00:58:44.898Z,3.20
2023-01-19T01:01:12.386Z,2.90
2023-01-19T01:03:38.999Z,3.00
2023-01-19T01:06:05.942Z,2.80
2023-01-19T01:08:32.822Z,3.00
2023-01-19T01:10:59.324Z,3.00
2023-01-19T01:13:27.757Z,2.40
2023-01-19T01:15:56.578Z,2.90
2023-01-19T01:18:24.379Z,2.80
2023-01-19T01:20:50.999Z,2.90
2023-01-19T01:23:17.831Z,3.40
2023-01-19T01:25:44.302Z,3.20
2023-01-19T01:28:10.767Z,2.90
2023-01-19T01:30:37.882Z,3.80
2023-01-19T01:33:04.359Z,3.70
2023-01-19T01:35:30.799Z,3.60
2023-01-19T01:38:00.936Z,3.60
2023-01-19T01:40:27.721Z,3.60
2023-01-19T01:42:54.288Z,4.30
2023-01-19T01:45:34.252Z,4.80
2023-01-19T01:48:29.102Z,5.10
2023-01-19T01:51:18.556Z,4.60
2023-01-19T01:53:49.728Z,4.50
2023-01-19T01:56:21.676Z,4.00
2023-01-19T01:58:49.472Z,4.00
2023-01-19T02:01:16.051Z,4.50
2023-01-19T02:03:42.734Z,4.20
2023-01-19T02:06:14.383Z,3.80
2023-01-19T02:11:14.492Z,4.60
2023-01-19T02:13:43.534Z,4.90
2023-01-19T02:16:11.202Z,4.20
2023-01-19T02:18:37.817Z,5.20
2023-01-19T02:21:22.469Z,4.50
2023-01-19T02:23:57.369Z,4.60
2023-01-19T02:26:28.553Z,4.70
2023-01-19T02:28:59.174Z,4.90
2023-01-19T02:31:28.665Z,4.60
2023-01-19T02:33:55.929Z,3.80
2023-01-19T02:36:30.756Z,3.20
2023-01-19T02:38:59.906Z,4.00
2023-01-19T02:41:30.839Z,3.90
2023-01-19T02:43:58.861Z,3.50
2023-01-19T02:46:25.896Z,3.40
2023-01-19T02:48:52.372Z,3.70
2023-01-19T02:51:24.809Z,3.10
2023-01-19T02:54:03.531Z,3.50
2023-01-19T02:56:38.846Z,3.50
2023-01-19T02:59:05.282Z,3.90
2023-01-19T03:02:10.367Z,3.10
2023-01-19T03:04:58.631Z,3.20
2023-01-19T03:07:50.309Z,3.40
2023-01-19T03:10:33.732Z,2.80
2023-01-19T03:13:04.118Z,2.80
2023-01-19T03:15:48.268Z,3.00
2023-01-19T03:18:19.345Z,2.50
2023-01-19T03:20:47.544Z,2.60
2023-01-19T03:23:15.613Z,2.50
2023-01-19T03:25:44.878Z,2.90
2023-01-19T03:28:14.895Z,3.10
2023-01-19T03:30:52.513Z,3.10
2023-01-19T03:33:30.149Z,2.80
2023-01-19T03:36:04.153Z,2.80
2023-01-19T03:38:35.157Z,2.30
2023-01-19T03:41:06.782Z,2.80
2023-01-19T03:46:01.081Z,2.70
2023-01-19T03:48:27.694Z,2.40
2023-01-19T03:50:55.286Z,2.70
2023-01-19T03:53:21.895Z,2.80
2023-01-19T03:55:50.964Z,2.70
2023-01-19T03:58:17.665Z,2.20
2023-01-19T04:00:44.344Z,2.60
2023-01-19T04:03:15.090Z,2.40
2023-01-19T04:05:42.441Z,2.40
2023-01-19T04:08:09.378Z,2.40
2023-01-19T04:10:36.678Z,2.40
2023-01-19T04:13:04.297Z,2.40
2023-01-19T04:15:31.983Z,2.30
2023-01-19T04:17:59.976Z,2.20
2023-01-19T04:20:27.717Z,2.10
2023-01-19T04:22:55.450Z,2.10
2023-01-19T04:25:21.994Z,2.20
2023-01-19T04:27:52.605Z,2.40
2023-01-19T04:30:19.651Z,2.10
2023-01-19T04:32:46.337Z,2.70
2023-01-19T04:35:12.828Z,2.80
2023-01-19T04:37:39.384Z,2.70
2023-01-19T04:40:06.617Z,2.80
2023-01-19T04:42:33.046Z,2.30
2023-01-19T04:44:59.513Z,2.50
2023-01-19T04:47:25.983Z,2.40
2023-01-19T04:49:52.474Z,2.10
2023-01-19T04:52:18.962Z,1.90
2023-01-19T04:54:45.455Z,1.90
2023-01-19T04:57:11.915Z,2.00
2023-01-19T04:59:38.405Z,2.20
2023-01-19T05:02:04.942Z,1.80
2023-01-19T05:04:31.424Z,2.00
2023-01-19T05:06:57.893Z,1.70
2023-01-19T05:09:24.380Z,1.70
2023-01-19T05:11:50.837Z,1.70
2023-01-19T05:14:17.404Z,1.60
2023-01-19T05:16:43.855Z,2.00
2023-01-19T05:19:10.510Z,1.70
2023-01-19T05:21:37.629Z,1.50
2023-01-19T05:24:04.269Z,1.70
2023-01-19T05:26:30.761Z,1.50
2023-01-19T05:28:57.208Z,1.70
2023-01-19T05:31:23.727Z,1.40
2023-01-19T05:33:50.253Z,1.50
2023-01-19T05:36:16.761Z,1.30
2023-01-19T05:38:43.206Z,1.50
2023-01-19T05:41:09.665Z,1.40
2023-01-19T05:43:36.193Z,1.50
2023-01-19T05:46:04.476Z,1.50
2023-01-19T05:48:31.497Z,1.20
2023-01-19T05:50:59.404Z,1.40
2023-01-19T05:53:26.659Z,1.40
2023-01-19T05:55:53.656Z,1.30
2023-01-19T05:58:22.483Z,1.20
2023-01-19T06:00:49.002Z,1.30
2023-01-19T06:03:15.513Z,1.40
2023-01-19T06:05:41.958Z,1.20
2023-01-19T06:08:08.434Z,1.70
2023-01-19T06:10:34.955Z,1.00
2023-01-19T06:13:01.798Z,1.50
2023-01-19T06:15:28.646Z,1.10
2023-01-19T06:17:55.117Z,1.30
2023-01-19T06:20:21.695Z,1.60
2023-01-19T06:22:48.260Z,1.30
2023-01-19T06:25:14.777Z,1.50
2023-01-19T06:27:44.809Z,1.90
2023-01-19T06:30:12.221Z,1.70
2023-01-19T06:32:38.726Z,1.80
2023-01-19T06:35:06.308Z,2.00
2023-01-19T06:37:32.865Z,1.80
2023-01-19T06:39:59.302Z,1.40
2023-01-19T06:42:25.794Z,1.70
2023-01-19T06:44:52.348Z,1.60
2023-01-19T06:47:18.804Z,1.30
2023-01-19T06:49:45.306Z,1.80
2023-01-19T06:52:12.848Z,1.60
2023-01-19T06:54:39.363Z,1.60
2023-01-19T06:57:05.845Z,2.20
2023-01-19T06:59:32.337Z,2.40
2023-01-19T07:01:58.947Z,2.70
2023-01-19T07:04:25.797Z,2.30
2023-01-19T07:06:52.389Z,2.00
2023-01-19T07:09:18.994Z,2.50
2023-01-19T07:11:45.482Z,2.00
2023-01-19T07:14:12.170Z,2.00
2023-01-19T07:16:38.762Z,2.10
2023-01-19T07:19:05.635Z,2.20
2023-01-19T07:21:32.124Z,2.20
2023-01-19T07:23:58.565Z,2.60
2023-01-19T07:26:25.051Z,2.70
2023-01-19T07:28:52.296Z,2.70
2023-01-19T07:31:19.762Z,3.90
2023-01-19T07:33:46.390Z,4.10
2023-01-19T07:36:13.040Z,6.50
2023-01-19T07:38:39.509Z,5.10
2023-01-19T07:41:09.087Z,3.70
2023-01-19T07:43:35.599Z,3.40
2023-01-19T07:46:04.509Z,3.60
2023-01-19T07:48:31.082Z,3.90
2023-01-19T07:51:01.972Z,3.60
2023-01-19T07:53:28.469Z,4.10
2023-01-19T07:55:57.875Z,4.90
2023-01-19T07:58:25.101Z,4.90
2023-01-19T08:00:51.632Z,4.70
2023-01-19T08:03:18.222Z,3.50
2023-01-19T08:05:45.513Z,3.60
2023-01-19T08:08:12.072Z,3.60
2023-01-19T08:10:38.624Z,3.30
2023-01-19T08:13:05.096Z,3.20
2023-01-19T08:15:31.563Z,3.40
2023-01-19T08:18:00.691Z,4.00
2023-01-19T08:20:28.287Z,3.80
2023-01-19T08:22:55.260Z,3.40
2023-01-19T08:25:21.702Z,3.90
2023-01-19T08:27:48.181Z,3.50
2023-01-19T08:30:14.780Z,3.60
2023-01-19T08:32:41.305Z,4.30
2023-01-19T08:35:08.281Z,3.50
2023-01-19T08:37:34.763Z,3.50
2023-01-19T08:40:01.495Z,3.80
2023-01-19T08:42:28.157Z,3.70
2023-01-19T08:44:58.101Z,3.90
2023-01-19T08:47:25.100Z,3.30
2023-01-19T08:49:51.696Z,4.20
2023-01-19T08:52:18.192Z,4.30
2023-01-19T08:54:44.728Z,4.70
2023-01-19T08:57:11.181Z,4.40
2023-01-19T08:59:37.653Z,5.50
2023-01-19T09:02:04.229Z,5.00
2023-01-19T09:04:30.870Z,5.90
2023-01-19T09:06:57.616Z,6.30
2023-01-19T09:09:24.088Z,8.20
2023-01-19T09:11:50.591Z,6.40
2023-01-19T09:14:17.093Z,5.70
2023-01-19T09:16:43.776Z,4.80
2023-01-19T09:19:10.277Z,5.30
2023-01-19T09:21:36.782Z,6.00
2023-01-19T09:24:03.433Z,5.50
2023-01-19T09:26:32.164Z,5.30
2023-01-19T09:28:59.450Z,4.40
2023-01-19T09:31:26.020Z,4.40
2023-01-19T09:33:52.598Z,4.80
2023-01-19T09:36:19.122Z,5.50
2023-01-19T09:38:45.623Z,4.80
2023-01-19T09:41:19.520Z,5.20
2023-01-19T09:43:51.444Z,5.10
2023-01-19T09:46:23.999Z,5.50
2023-01-19T09:48:55.637Z,6.10
2023-01-19T09:53:59.155Z,5.00
2023-01-19T09:56:28.096Z,4.90
2023-01-19T09:58:54.608Z,4.90
2023-01-19T10:01:34.821Z,6.20
2023-01-19T10:04:27.526Z,5.30
2023-01-19T10:07:16.523Z,6.10
2023-01-19T10:10:02.102Z,5.50
2023-01-19T10:12:43.501Z,6.20
2023-01-19T10:15:28.190Z,5.70
2023-01-19T10:18:12.795Z,6.50
2023-01-19T10:20:50.546Z,6.90
2023-01-19T10:23:25.043Z,8.90
2023-01-19T10:25:52.309Z,8.10
2023-01-19T10:28:25.395Z,7.40
2023-01-19T10:30:54.818Z,8.40
2023-01-19T10:33:21.496Z,7.90
2023-01-19T10:35:47.996Z,7.30
2023-01-19T10:38:17.429Z,7.60
2023-01-19T10:40:57.611Z,6.00
2023-01-19T10:43:45.203Z,5.40
2023-01-19T10:46:21.288Z,6.30
2023-01-19T10:48:53.133Z,5.20
2023-01-19T10:51:20.538Z,5.40
2023-01-19T10:54:13.285Z,6.10
2023-01-19T10:56:40.405Z,5.60
2023-01-19T10:59:27.376Z,4.60
2023-01-19T11:02:16.005Z,4.30
2023-01-19T11:04:43.036Z,4.30
2023-01-19T11:07:20.004Z,3.60
2023-01-19T11:09:48.075Z,4.00
2023-01-19T11:12:22.968Z,3.80
2023-01-19T11:14:51.090Z,4.20
2023-01-19T11:17:21.316Z,4.10
2023-01-19T11:20:02.524Z,4.60
2023-01-19T11:22:32.868Z,4.30
2023-01-19T11:25:02.213Z,3.70
2023-01-19T11:27:30.867Z,4.10
2023-01-19T11:30:02.928Z,5.20
2023-01-19T11:32:32.340Z,4.20
2023-01-19T11:34:59.767Z,4.50
2023-01-19T11:37:31.852Z,4.90
2023-01-19T11:40:00.257Z,4.20
2023-01-19T11:42:30.125Z,4.30
2023-01-19T11:45:19.086Z,4.30
2023-01-19T11:47:47.670Z,4.40
2023-01-19T11:50:37.753Z,4.60
2023-01-19T11:53:17.450Z,4.50
2023-01-19T11:55:48.216Z,4.20
2023-01-19T11:58:18.275Z,4.30
2023-01-19T12:00:46.698Z,4.40
2023-01-19T12:03:17.764Z,6.00
2023-01-19T12:05:49.040Z,5.90
2023-01-19T12:08:34.345Z,6.40
2023-01-19T12:11:03.580Z,6.40
2023-01-19T12:13:32.373Z,6.70
2023-01-19T12:16:09.377Z,7.00
2023-01-19T12:18:41.248Z,6.30
2023-01-19T12:21:08.038Z,5.70
2023-01-19T12:23:55.463Z,6.30
2023-01-19T12:26:21.924Z,7.10
2023-01-19T12:28:51.066Z,6.00
2023-01-19T12:31:19.841Z,8.40
2023-01-19T12:33:47.231Z,6.30
2023-01-19T12:36:16.728Z,7.40
2023-01-19T12:38:49.172Z,6.50
2023-01-19T12:41:19.591Z,7.40
2023-01-19T12:43:48.003Z,5.80
2023-01-19T12:46:32.636Z,6.50
2023-01-19T12:49:17.696Z,7.40
2023-01-19T12:51:44.716Z,6.60
2023-01-19T12:54:26.549Z,7.00
2023-01-19T12:56:59.155Z,6.60
2023-01-19T12:59:27.316Z,5.70
2023-01-19T13:02:24.890Z,6.80
2023-01-19T13:05:11.480Z,6.50
2023-01-19T13:08:02.568Z,7.20
2023-01-19T13:10:53.943Z,6.60
2023-01-19T13:13:30.682Z,6.70
2023-01-19T13:16:20.893Z,6.70
2023-01-19T13:19:05.326Z,6.80
2023-01-19T13:21:43.607Z,7.20
2023-01-19T13:24:21.903Z,7.80
2023-01-19T13:26:51.248Z,7.00
2023-01-19T13:29:36.433Z,7.50
2023-01-19T13:32:15.390Z,7.10
2023-01-19T13:34:52.083Z,7.30
2023-01-19T13:37:21.903Z,6.70
2023-01-19T13:39:51.593Z,7.10
2023-01-19T13:42:28.011Z,7.60
2023-01-19T13:44:57.719Z,7.40
2023-01-19T13:47:38.932Z,6.10
2023-01-19T13:50:08.406Z,7.20
2023-01-19T13:52:34.849Z,8.00
2023-01-19T13:55:04.087Z,7.10
2023-01-19T13:57:31.837Z,7.10
2023-01-19T14:00:10.479Z,7.70
2023-01-19T14:02:40.953Z,6.30
2023-01-19T14:05:19.723Z,8.00
2023-01-19T14:07:46.273Z,6.80
2023-01-19T14:10:15.922Z,8.20
2023-01-19T14:12:58.148Z,7.90
2023-01-19T14:15:26.137Z,6.80
2023-01-19T14:18:18.882Z,8.70
2023-01-19T14:21:17.935Z,9.30
2023-01-19T14:23:48.991Z,10.30
2023-01-19T14:26:37.324Z,9.60
2023-01-19T14:29:09.632Z,9.10
2023-01-19T14:32:00.703Z,8.90
2023-01-19T14:34:33.424Z,10.10
2023-01-19T14:37:01.560Z,8.70
2023-01-19T14:39:31.561Z,9.90
2023-01-19T14:42:00.653Z,10.30
2023-01-19T14:44:38.518Z,10.30
2023-01-19T14:47:07.204Z,9.40
2023-01-19T14:49:41.441Z,9.70
2023-01-19T14:52:23.602Z,7.80
2023-01-19T14:54:50.677Z,9.00
2023-01-19T14:57:17.159Z,7.50
2023-01-19T14:59:43.620Z,7.50
2023-01-19T15:02:10.223Z,8.30
2023-01-19T15:04:36.838Z,9.40
2023-01-19T15:07:03.316Z,9.00
2023-01-19T15:09:30.024Z,9.70
2023-01-19T15:11:56.572Z,8.60
2023-01-19T15:14:23.103Z,9.60
2023-01-19T15:16:50.121Z,8.30
2023-01-19T15:19:17.534Z,9.90
2023-01-19T15:21:44.609Z,10.00
2023-01-19T15:24:12.240Z,10.60
2023-01-19T15:26:41.775Z,11.00
2023-01-19T15:29:14.499Z,11.40
2023-01-19T15:31:41.036Z,8.40
2023-01-19T15:34:11.842Z,11.20
2023-01-19T15:36:38.414Z,8.80
2023-01-19T15:39:04.875Z,9.50
2023-01-19T15:41:31.719Z,10.60
2023-01-19T15:43:58.906Z,10.70
2023-01-19T15:46:25.994Z,11.10
2023-01-19T15:48:53.928Z,10.90
2023-01-19T15:51:23.276Z,8.80
2023-01-19T15:53:49.860Z,10.00
2023-01-19T15:56:22.014Z,11.70
2023-01-19T15:58:48.706Z,11.20
2023-01-19T16:01:17.734Z,12.20
2023-01-19T16:03:44.517Z,11.00
2023-01-19T16:06:11.379Z,11.10
2023-01-19T16:08:37.941Z,12.80
2023-01-19T16:11:10.455Z,11.20
2023-01-19T16:16:23.271Z,11.10
2023-01-19T16:18:51.535Z,12.10
2023-01-19T16:21:24.676Z,12.00
2023-01-19T16:23:55.317Z,12.30
2023-01-19T16:26:35.984Z,12.20
2023-01-19T16:29:12.581Z,12.80
2023-01-19T16:31:43.957Z,14.10
2023-01-19T16:34:19.180Z,10.80
2023-01-19T16:36:52.931Z,12.60
2023-01-19T16:39:20.031Z,10.20
2023-01-19T16:41:47.687Z,9.80
2023-01-19T16:44:26.905Z,12.80
2023-01-19T16:46:59.306Z,12.00
2023-01-19T16:49:28.516Z,10.80
2023-01-19T16:51:57.864Z,12.60
2023-01-19T16:57:11.349Z,10.30
2023-01-19T16:59:48.214Z,10.80
2023-01-19T17:02:16.498Z,12.30
2023-01-19T17:04:54.270Z,10.20
2023-01-19T17:07:34.406Z,12.40
2023-01-19T17:10:01.980Z,11.80
2023-01-19T17:12:30.142Z,12.30
2023-01-19T17:14:58.523Z,11.50
2023-01-19T17:17:25.027Z,10.80
2023-01-19T17:19:51.501Z,10.90
2023-01-19T17:22:17.984Z,11.20
2023-01-19T17:24:44.473Z,10.00
2023-01-19T17:27:10.965Z,10.80
2023-01-19T17:29:37.441Z,10.50
2023-01-19T17:32:04.191Z,11.50
2023-01-19T17:34:30.667Z,11.50
2023-01-19T17:36:57.296Z,12.10
2023-01-19T17:39:23.782Z,11.00
2023-01-19T17:41:50.428Z,10.00
2023-01-19T17:44:16.880Z,8.60
2023-01-19T17:46:43.371Z,10.10
2023-01-19T17:49:11.079Z,10.10
2023-01-19T17:51:37.636Z,10.70
2023-01-19T17:54:04.154Z,9.50
2023-01-19T17:56:31.329Z,10.30
2023-01-19T17:58:58.754Z,9.20
2023-01-19T18:01:28.203Z,10.30
2023-01-19T18:03:55.554Z,9.70
2023-01-19T18:06:22.522Z,10.10
2023-01-19T18:08:49.587Z,8.70
2023-01-19T18:11:18.577Z,9.40
2023-01-19T18:13:49.326Z,8.50
2023-01-19T18:16:22.747Z,7.90
2023-01-19T18:18:49.599Z,10.00
2023-01-19T18:21:17.356Z,7.80
2023-01-19T18:23:43.934Z,8.10
2023-01-19T18:26:13.572Z,9.60
2023-01-19T18:28:40.094Z,8.70
2023-01-19T18:31:08.916Z,10.80
2023-01-19T18:33:36.614Z,9.20
2023-01-19T18:36:03.567Z,9.80
2023-01-19T18:38:30.087Z,8.00
2023-01-19T18:41:10.277Z,9.30
2023-01-19T18:43:37.124Z,9.10
2023-01-19T18:46:04.046Z,8.20
2023-01-19T18:48:32.845Z,8.10
2023-01-19T18:50:59.611Z,7.20
2023-01-19T18:53:26.152Z,8.90
2023-01-19T18:55:54.841Z,7.60
2023-01-19T18:58:22.004Z,7.80
2023-01-19T19:00:49.156Z,8.00
2023-01-19T19:03:16.344Z,9.10
2023-01-19T19:05:43.265Z,9.40
2023-01-19T19:08:09.819Z,7.80
2023-01-19T19:10:36.333Z,7.20
2023-01-19T19:13:02.986Z,7.80
2023-01-19T19:15:29.466Z,9.10
2023-01-19T19:17:55.988Z,6.90
2023-01-19T19:20:22.463Z,8.50
2023-01-19T19:22:49.598Z,8.40
2023-01-19T19:25:16.103Z,8.60
2023-01-19T19:27:42.615Z,9.10
2023-01-19T19:30:09.559Z,7.30
2023-01-19T19:32:37.241Z,9.30
2023-01-19T19:35:04.050Z,8.10
2023-01-19T19:37:30.582Z,9.00
2023-01-19T19:39:57.084Z,8.60
2023-01-19T19:42:24.455Z,9.60
2023-01-19T19:44:50.930Z,7.70
2023-01-19T19:47:20.422Z,8.50
2023-01-19T19:49:46.926Z,8.30
2023-01-19T19:52:13.416Z,8.90
2023-01-19T19:54:39.887Z,9.60
2023-01-19T19:57:06.553Z,9.00
2023-01-19T19:59:33.080Z,9.00
2023-01-19T20:01:59.632Z,7.40
2023-01-19T20:04:26.252Z,9.60
2023-01-19T20:06:52.729Z,9.20
2023-01-19T20:09:19.209Z,8.10
2023-01-19T20:11:46.289Z,6.60
2023-01-19T20:14:13.944Z,9.30
2023-01-19T20:16:40.539Z,8.30
2023-01-19T20:19:07.489Z,7.80
2023-01-19T20:21:36.684Z,9.40
2023-01-19T20:24:06.373Z,8.50
2023-01-19T20:26:39.159Z,8.50
2023-01-19T20:29:06.306Z,8.00
2023-01-19T20:31:35.765Z,10.40
2023-01-19T20:34:05.272Z,7.90
2023-01-19T20:36:33.211Z,8.60
2023-01-19T20:39:00.262Z,9.00
2023-01-19T20:41:27.258Z,8.60
2023-01-19T20:43:54.266Z,10.50
2023-01-19T20:46:20.851Z,8.40
2023-01-19T20:48:47.520Z,9.40
2023-01-19T20:51:14.084Z,9.50
2023-01-19T20:53:41.295Z,8.50
2023-01-19T20:56:11.666Z,9.10
2023-01-19T20:58:38.314Z,10.50
2023-01-19T21:01:14.182Z,9.00
2023-01-19T21:03:41.417Z,10.20
2023-01-19T21:06:08.354Z,9.80
2023-01-19T21:08:35.631Z,9.60
2023-01-19T21:11:02.685Z,8.90
2023-01-19T21:13:29.389Z,10.90
2023-01-19T21:15:56.093Z,9.00
2023-01-19T21:18:22.731Z,9.90
2023-01-19T21:20:49.257Z,11.00
2023-01-19T21:23:16.128Z,10.60
2023-01-19T21:25:53.838Z,9.20
2023-01-19T21:28:21.056Z,10.30
2023-01-19T21:30:47.594Z,10.90
2023-01-19T21:33:14.263Z,11.00
2023-01-19T21:35:40.737Z,9.90
2023-01-19T21:38:07.217Z,9.80
2023-01-19T21:40:33.685Z,7.20
2023-01-19T21:43:00.142Z,8.70
2023-01-19T21:45:26.680Z,10.00
2023-01-19T21:47:53.151Z,9.30
2023-01-19T21:50:19.646Z,10.80
2023-01-19T21:52:46.211Z,10.20
2023-01-19T21:55:12.939Z,9.50
2023-01-19T21:57:39.563Z,9.80
2023-01-19T22:00:06.875Z,10.00
2023-01-19T22:02:38.594Z,9.90
2023-01-19T22:05:06.053Z,9.80
2023-01-19T22:07:32.581Z,9.00
2023-01-19T22:09:59.032Z,9.10
2023-01-19T22:12:25.788Z,8.80
2023-01-19T22:14:52.777Z,9.80
2023-01-19T22:17:19.281Z,8.90
2023-01-19T22:19:45.803Z,9.60
2023-01-19T22:22:12.266Z,9.00
2023-01-19T22:24:38.702Z,9.50
2023-01-19T22:27:05.193Z,8.10
2023-01-19T22:29:31.700Z,8.50
2023-01-19T22:31:58.139Z,9.90
2023-01-19T22:34:24.653Z,9.20
2023-01-19T22:36:51.108Z,8.80
2023-01-19T22:39:17.721Z,9.40
2023-01-19T22:41:46.202Z,8.40
2023-01-19T22:44:16.242Z,9.30
2023-01-19T22:46:43.513Z,8.60
2023-01-19T22:49:13.758Z,8.20
2023-01-19T22:51:40.469Z,7.80
2023-01-19T22:54:07.350Z,8.50
2023-01-19T22:56:35.921Z,8.70
2023-01-19T22:59:04.026Z,8.80
2023-01-19T23:01:36.453Z,8.60
2023-01-19T23:04:05.007Z,9.10
2023-01-19T23:06:34.189Z,9.30
2023-01-19T23:09:03.305Z,8.30
2023-01-19T23:11:35.737Z,7.30
2023-01-19T23:14:03.894Z,7.90
2023-01-19T23:16:30.648Z,7.60
2023-01-19T23:18:58.735Z,8.10
2023-01-19T23:21:28.137Z,8.70
2023-01-19T23:23:56.317Z,8.10
2023-01-19T23:26:23.466Z,8.30
2023-01-19T23:29:00.497Z,8.80
2023-01-19T23:31:37.306Z,8.80
2023-01-19T23:34:07.146Z,8.10
2023-01-19T23:36:35.619Z,8.10
2023-01-19T23:39:05.967Z,8.50
2023-01-19T23:41:33.948Z,8.70
2023-01-19T23:44:00.868Z,6.20
2023-01-19T23:46:28.128Z,6.30
2023-01-19T23:48:54.772Z,7.40
2023-01-19T23:51:27.592Z,8.20
2023-01-19T23:53:54.465Z,6.80
2023-01-19T23:56:32.101Z,6.50
2023-01-19T23:59:08.063Z,6.90
